createdAt,value
2022-10-17T00:00:39.767Z,1.90
2022-10-17T00:03:41.740Z,1.80
2022-10-17T00:06:43.680Z,1.80
2022-10-17T00:09:45.597Z,1.70
2022-10-17T00:12:50.709Z,1.70
2022-10-17T00:15:52.917Z,1.60
2022-10-17T00:18:55.626Z,1.70
2022-10-17T00:21:57.514Z,1.70
2022-10-17T00:24:59.455Z,1.80
2022-10-17T00:28:01.344Z,1.80
2022-10-17T00:31:05.844Z,1.90
2022-10-17T00:34:07.722Z,1.80
2022-10-17T00:37:09.708Z,1.80
2022-10-17T00:40:12.307Z,1.60
2022-10-17T00:43:18.476Z,1.60
2022-10-17T00:46:22.112Z,1.60
2022-10-17T00:49:26.796Z,1.50
2022-10-17T00:52:31.026Z,1.40
2022-10-17T00:55:37.714Z,1.50
2022-10-17T00:58:39.819Z,1.40
2022-10-17T01:01:47.123Z,1.30
2022-10-17T01:04:55.080Z,1.30
2022-10-17T01:07:57.209Z,1.30
2022-10-17T01:11:13.569Z,1.30
2022-10-17T01:14:21.501Z,1.20
2022-10-17T01:17:45.702Z,1.20
2022-10-17T01:21:16.830Z,1.20
2022-10-17T01:25:16.795Z,1.20
2022-10-17T01:29:05.001Z,1.10
2022-10-17T01:32:40.301Z,1.00
2022-10-17T01:35:52.375Z,1.00
2022-10-17T01:39:20.850Z,1.10
2022-10-17T01:46:21.413Z,1.10
2022-10-17T01:49:27.660Z,1.00
2022-10-17T01:52:51.896Z,0.90
2022-10-17T01:59:13.437Z,0.90
2022-10-17T02:02:17.562Z,0.90
2022-10-17T02:05:24.621Z,1.00
2022-10-17T02:08:28.839Z,1.00
2022-10-17T02:11:30.726Z,0.80
2022-10-17T02:14:45.410Z,0.80
2022-10-17T02:18:00.020Z,0.80
2022-10-17T02:21:09.055Z,0.80
2022-10-17T02:24:32.466Z,0.60
2022-10-17T02:27:53.613Z,0.60
2022-10-17T02:31:00.935Z,0.60
2022-10-17T02:34:17.241Z,0.60
2022-10-17T02:37:25.599Z,0.60
2022-10-17T02:40:29.409Z,0.60
2022-10-17T02:43:31.808Z,0.60
2022-10-17T02:46:35.470Z,0.60
2022-10-17T02:49:42.953Z,0.50
2022-10-17T02:52:58.309Z,0.50
2022-10-17T02:56:05.130Z,0.60
2022-10-17T02:59:09.392Z,0.60
2022-10-17T03:02:11.740Z,0.70
2022-10-17T03:05:19.223Z,0.60
2022-10-17T03:08:21.388Z,0.60
2022-10-17T03:11:23.232Z,0.60
2022-10-17T03:14:25.128Z,0.60
2022-10-17T03:17:26.967Z,0.60
2022-10-17T03:20:29.048Z,0.60
2022-10-17T03:23:30.878Z,0.50
2022-10-17T03:26:32.896Z,0.40
2022-10-17T03:29:34.755Z,0.40
2022-10-17T03:32:36.642Z,0.40
2022-10-17T03:35:40.018Z,0.30
2022-10-17T03:38:42.876Z,0.30
2022-10-17T03:41:44.713Z,0.20
2022-10-17T03:44:46.730Z,0.30
2022-10-17T03:47:48.538Z,0.30
2022-10-17T03:50:50.646Z,0.20
2022-10-17T03:53:52.592Z,0.20
2022-10-17T03:56:54.552Z,0.20
2022-10-17T03:59:56.447Z,0.20
2022-10-17T04:02:58.806Z,0.10
2022-10-17T04:06:01.866Z,0.10
2022-10-17T04:09:05.504Z,0.10
2022-10-17T04:12:07.333Z,0.10
2022-10-17T04:15:10.013Z,0.20
2022-10-17T04:18:11.839Z,0.20
2022-10-17T04:21:14.134Z,0.20
2022-10-17T04:24:16.124Z,0.20
2022-10-17T04:27:17.978Z,0.30
2022-10-17T04:30:19.828Z,0.30
2022-10-17T04:33:21.789Z,0.30
2022-10-17T04:36:23.731Z,0.30
2022-10-17T04:39:25.901Z,0.40
2022-10-17T04:42:29.831Z,0.50
2022-10-17T04:45:31.888Z,0.60
2022-10-17T04:48:33.731Z,0.60
2022-10-17T04:51:35.713Z,0.60
2022-10-17T04:54:37.541Z,0.80
2022-10-17T04:57:39.503Z,0.90
2022-10-17T05:00:41.611Z,1.00
2022-10-17T05:03:44.419Z,1.00
2022-10-17T05:06:46.317Z,1.00
2022-10-17T05:09:48.296Z,1.10
2022-10-17T05:12:51.055Z,1.20
2022-10-17T05:15:53.329Z,1.30
2022-10-17T05:18:57.626Z,1.40
2022-10-17T05:21:59.489Z,1.50
2022-10-17T05:25:01.506Z,1.70
2022-10-17T05:28:03.366Z,1.80
2022-10-17T05:31:06.693Z,1.90
2022-10-17T05:34:11.565Z,2.00
2022-10-17T05:37:15.859Z,2.10
2022-10-17T05:40:17.921Z,2.10
2022-10-17T05:43:19.834Z,2.30
2022-10-17T05:46:21.957Z,2.40
2022-10-17T05:49:33.403Z,2.60
2022-10-17T05:52:47.158Z,2.70
2022-10-17T05:55:59.518Z,2.90
2022-10-17T05:59:01.467Z,3.00
2022-10-17T06:02:03.466Z,3.20
2022-10-17T06:05:05.701Z,3.40
2022-10-17T06:08:07.547Z,3.50
2022-10-17T06:11:10.590Z,3.70
2022-10-17T06:14:12.577Z,3.80
2022-10-17T06:17:16.179Z,4.00
2022-10-17T06:20:18.354Z,4.10
2022-10-17T06:23:20.349Z,4.40
2022-10-17T06:26:22.412Z,4.50
2022-10-17T06:29:24.540Z,4.60
2022-10-17T06:32:27.471Z,4.90
2022-10-17T06:35:29.622Z,5.10
2022-10-17T06:38:31.570Z,5.30
2022-10-17T06:41:33.462Z,5.50
2022-10-17T06:44:35.502Z,5.60
2022-10-17T06:47:37.595Z,5.90
2022-10-17T06:50:39.474Z,5.90
2022-10-17T06:53:41.428Z,6.10
2022-10-17T06:56:43.265Z,6.20
2022-10-17T06:59:45.145Z,6.40
2022-10-17T07:02:47.019Z,6.50
2022-10-17T07:05:53.152Z,6.50
2022-10-17T07:08:55.813Z,6.70
2022-10-17T07:11:58.386Z,6.80
2022-10-17T07:15:00.233Z,6.90
2022-10-17T07:18:02.116Z,7.10
2022-10-17T07:21:04.931Z,7.20
2022-10-17T07:24:07.593Z,7.40
2022-10-17T07:27:09.464Z,7.60
2022-10-17T07:30:11.764Z,7.80
2022-10-17T07:33:13.662Z,8.00
2022-10-17T07:36:15.948Z,8.10
2022-10-17T07:39:17.944Z,8.20
2022-10-17T07:42:19.870Z,8.40
2022-10-17T07:45:23.690Z,8.60
2022-10-17T07:48:26.167Z,8.80
2022-10-17T07:51:29.385Z,9.00
2022-10-17T07:54:31.241Z,9.20
2022-10-17T07:57:33.054Z,9.30
2022-10-17T08:00:35.964Z,9.40
2022-10-17T08:03:37.916Z,9.60
2022-10-17T08:06:39.772Z,9.70
2022-10-17T08:09:41.927Z,9.80
2022-10-17T08:12:43.961Z,9.90
2022-10-17T08:15:47.896Z,10.00
2022-10-17T08:18:50.011Z,10.20
2022-10-17T08:21:52.466Z,10.40
2022-10-17T08:24:54.396Z,10.70
2022-10-17T08:27:56.381Z,10.80
2022-10-17T08:31:07.233Z,10.90
2022-10-17T08:34:09.165Z,11.10
2022-10-17T08:37:13.884Z,11.10
2022-10-17T08:40:27.711Z,11.10
2022-10-17T08:43:52.035Z,11.20
2022-10-17T08:46:59.056Z,11.30
2022-10-17T08:50:05.525Z,11.20
2022-10-17T08:53:15.306Z,11.40
2022-10-17T08:56:44.418Z,11.60
2022-10-17T08:59:53.431Z,11.80
2022-10-17T09:03:13.868Z,11.90
2022-10-17T09:06:29.975Z,12.20
2022-10-17T09:09:40.401Z,12.10
2022-10-17T09:13:20.608Z,12.10
2022-10-17T09:16:41.403Z,12.40
2022-10-17T09:20:10.300Z,12.50
2022-10-17T09:23:25.681Z,12.80
2022-10-17T09:26:28.399Z,12.80
2022-10-17T09:29:36.941Z,12.70
2022-10-17T09:32:43.038Z,12.60
2022-10-17T09:35:45.944Z,12.90
2022-10-17T09:38:57.064Z,13.10
2022-10-17T09:42:01.519Z,13.30
2022-10-17T09:45:27.603Z,13.40
2022-10-17T09:48:42.529Z,13.40
2022-10-17T09:51:44.658Z,13.40
2022-10-17T09:54:48.225Z,13.20
2022-10-17T09:57:57.341Z,13.20
2022-10-17T10:01:21.065Z,13.10
2022-10-17T10:04:30.186Z,13.30
2022-10-17T10:07:38.568Z,13.60
2022-10-17T10:10:43.707Z,13.70
2022-10-17T10:13:47.609Z,13.90
2022-10-17T10:16:51.077Z,13.90
2022-10-17T10:19:53.597Z,13.70
2022-10-17T10:23:13.993Z,13.60
2022-10-17T10:26:49.234Z,13.90
2022-10-17T10:29:52.663Z,14.00
2022-10-17T10:32:56.259Z,14.00
2022-10-17T10:36:04.350Z,13.90
2022-10-17T10:39:08.734Z,14.00
2022-10-17T10:42:24.994Z,14.20
2022-10-17T10:45:49.144Z,14.30
2022-10-17T10:48:53.081Z,14.40
2022-10-17T10:51:56.070Z,14.40
2022-10-17T10:55:07.113Z,14.60
2022-10-17T10:58:44.008Z,14.60
2022-10-17T11:01:54.168Z,14.70
2022-10-17T11:05:10.372Z,14.90
2022-10-17T11:08:27.462Z,15.00
2022-10-17T11:11:40.705Z,14.70
2022-10-17T11:14:54.477Z,14.60
2022-10-17T11:18:18.165Z,14.80
2022-10-17T11:21:28.852Z,15.00
2022-10-17T11:24:38.112Z,15.00
2022-10-17T11:27:39.936Z,15.00
2022-10-17T11:33:59.928Z,14.90
2022-10-17T11:37:14.650Z,15.00
2022-10-17T11:40:24.453Z,14.90
2022-10-17T11:43:35.942Z,15.00
2022-10-17T11:46:39.895Z,15.20
2022-10-17T11:49:51.368Z,15.20
2022-10-17T11:53:00.421Z,15.10
2022-10-17T11:56:02.994Z,15.10
2022-10-17T11:59:29.858Z,15.30
2022-10-17T12:03:00.849Z,15.20
2022-10-17T12:06:13.368Z,15.10
2022-10-17T12:09:54.180Z,15.00
2022-10-17T12:12:56.056Z,15.10
2022-10-17T12:16:31.497Z,15.30
2022-10-17T12:19:35.728Z,15.30
2022-10-17T12:22:47.553Z,15.30
2022-10-17T12:26:01.133Z,15.50
2022-10-17T12:29:29.126Z,15.50
2022-10-17T12:32:46.939Z,15.50
2022-10-17T12:36:18.933Z,15.50
2022-10-17T12:39:26.487Z,15.60
2022-10-17T12:42:33.330Z,15.50
2022-10-17T12:45:54.885Z,15.30
2022-10-17T12:49:02.024Z,15.40
2022-10-17T12:52:22.612Z,15.40
2022-10-17T12:55:25.597Z,15.30
2022-10-17T12:58:28.326Z,15.30
2022-10-17T13:01:33.026Z,15.60
2022-10-17T13:04:37.135Z,15.70
2022-10-17T13:07:42.769Z,15.50
2022-10-17T13:10:51.605Z,15.30
2022-10-17T13:13:58.161Z,15.20
2022-10-17T13:17:03.065Z,15.10
2022-10-17T13:20:23.608Z,15.40
2022-10-17T13:23:37.779Z,15.30
2022-10-17T13:26:45.964Z,15.20
2022-10-17T13:29:47.921Z,15.30
2022-10-17T13:32:50.509Z,15.40
2022-10-17T13:36:00.831Z,15.10
2022-10-17T13:39:12.172Z,15.00
2022-10-17T13:42:44.261Z,14.90
2022-10-17T13:45:50.331Z,14.90
2022-10-17T13:48:52.639Z,14.90
2022-10-17T13:51:56.228Z,14.80
2022-10-17T13:55:16.875Z,14.90
2022-10-17T13:58:19.886Z,14.80
2022-10-17T14:01:22.274Z,14.70
2022-10-17T14:04:24.457Z,14.60
2022-10-17T14:08:10.056Z,14.50
2022-10-17T14:11:18.199Z,14.50
2022-10-17T14:14:24.337Z,14.70
2022-10-17T14:17:29.341Z,15.70
2022-10-17T14:21:29.153Z,16.70
2022-10-17T14:24:26.325Z,17.60
2022-10-17T14:27:31.742Z,17.60
2022-10-17T14:30:56.685Z,17.50
2022-10-17T14:34:01.099Z,17.40
2022-10-17T14:37:09.262Z,17.30
2022-10-17T14:40:20.929Z,16.90
2022-10-17T14:43:29.015Z,16.30
2022-10-17T14:46:31.326Z,15.80
2022-10-17T14:49:39.462Z,15.10
2022-10-17T14:52:43.071Z,14.70
2022-10-17T14:55:59.543Z,14.50
2022-10-17T14:59:03.197Z,14.20
2022-10-17T15:02:05.170Z,14.30
2022-10-17T15:05:10.759Z,14.20
2022-10-17T15:08:16.635Z,14.20
2022-10-17T15:11:18.674Z,14.10
2022-10-17T15:14:20.628Z,14.00
2022-10-17T15:17:33.020Z,14.00
2022-10-17T15:20:35.122Z,14.00
2022-10-17T15:23:37.561Z,13.90
2022-10-17T15:26:39.522Z,13.80
2022-10-17T15:29:41.404Z,13.50
2022-10-17T15:32:43.274Z,13.20
2022-10-17T15:35:45.394Z,13.00
2022-10-17T15:38:48.568Z,12.50
2022-10-17T15:41:50.462Z,12.20
2022-10-17T15:44:52.463Z,11.80
2022-10-17T15:47:57.002Z,11.70
2022-10-17T15:50:58.994Z,11.60
2022-10-17T15:54:01.600Z,11.20
2022-10-17T15:57:03.758Z,10.90
2022-10-17T16:00:12.810Z,10.60
2022-10-17T16:03:17.489Z,10.50
2022-10-17T16:06:20.752Z,10.50
2022-10-17T16:09:22.668Z,10.20
2022-10-17T16:12:29.266Z,10.10
2022-10-17T16:15:31.182Z,9.90
2022-10-17T16:18:33.382Z,9.70
2022-10-17T16:21:37.553Z,9.70
2022-10-17T16:24:39.535Z,9.50
2022-10-17T16:27:41.530Z,9.30
2022-10-17T16:30:46.072Z,9.40
2022-10-17T16:33:49.540Z,9.40
2022-10-17T16:36:52.058Z,9.10
2022-10-17T16:39:54.260Z,8.90
2022-10-17T16:42:56.264Z,8.90
2022-10-17T16:45:59.022Z,8.80
2022-10-17T16:49:01.306Z,8.70
2022-10-17T16:52:03.201Z,8.60
2022-10-17T16:55:05.450Z,8.60
2022-10-17T16:58:07.360Z,8.70
2022-10-17T17:01:13.094Z,8.70
2022-10-17T17:04:15.405Z,8.60
2022-10-17T17:07:19.385Z,8.50
2022-10-17T17:10:21.280Z,8.50
2022-10-17T17:13:23.113Z,8.40
2022-10-17T17:16:27.273Z,8.30
2022-10-17T17:19:29.081Z,8.20
2022-10-17T17:22:30.963Z,8.10
2022-10-17T17:25:35.064Z,8.10
2022-10-17T17:28:38.398Z,8.00
2022-10-17T17:31:40.423Z,7.90
2022-10-17T17:34:42.294Z,7.80
2022-10-17T17:37:44.673Z,7.80
2022-10-17T17:40:50.738Z,7.60
2022-10-17T17:43:53.696Z,7.50
2022-10-17T17:46:55.573Z,7.40
2022-10-17T17:49:57.673Z,7.50
2022-10-17T17:53:00.087Z,7.40
2022-10-17T17:56:07.821Z,7.40
2022-10-17T17:59:13.489Z,7.40
2022-10-17T18:02:15.716Z,7.40
2022-10-17T18:05:19.164Z,7.10
2022-10-17T18:08:20.939Z,7.00
2022-10-17T18:11:22.779Z,7.00
2022-10-17T18:14:25.546Z,7.00
2022-10-17T18:17:27.828Z,7.00
2022-10-17T18:20:30.014Z,6.80
2022-10-17T18:23:31.762Z,6.60
2022-10-17T18:26:34.016Z,6.50
2022-10-17T18:29:36.028Z,6.50
2022-10-17T18:32:37.756Z,6.40
2022-10-17T18:35:39.513Z,6.50
2022-10-17T18:38:42.261Z,6.60
2022-10-17T18:41:44.005Z,6.60
2022-10-17T18:44:47.923Z,6.50
2022-10-17T18:47:52.664Z,6.30
2022-10-17T18:50:54.375Z,6.20
2022-10-17T18:53:58.599Z,6.20
2022-10-17T18:57:00.569Z,6.30
2022-10-17T19:00:02.699Z,6.30
2022-10-17T19:03:05.886Z,6.30
2022-10-17T19:06:09.115Z,6.30
2022-10-17T19:09:11.888Z,6.20
2022-10-17T19:12:13.919Z,6.00
2022-10-17T19:15:15.701Z,5.90
2022-10-17T19:18:17.621Z,6.10
2022-10-17T19:21:21.932Z,5.90
2022-10-17T19:24:25.367Z,5.70
2022-10-17T19:27:27.334Z,5.60
2022-10-17T19:30:29.521Z,5.50
2022-10-17T19:33:31.754Z,5.50
2022-10-17T19:36:34.360Z,5.50
2022-10-17T19:39:36.144Z,5.50
2022-10-17T19:42:38.950Z,5.50
2022-10-17T19:45:40.664Z,5.60
2022-10-17T19:48:42.634Z,5.40
2022-10-17T19:51:44.788Z,5.20
2022-10-17T19:54:46.508Z,5.10
2022-10-17T19:57:48.313Z,5.00
2022-10-17T20:00:51.084Z,4.90
2022-10-17T20:03:52.966Z,4.80
2022-10-17T20:06:59.745Z,4.80
2022-10-17T20:10:01.879Z,4.70
2022-10-17T20:13:04.355Z,4.70
2022-10-17T20:16:08.352Z,4.80
2022-10-17T20:19:11.768Z,4.70
2022-10-17T20:22:14.940Z,4.70
2022-10-17T20:25:16.906Z,4.50
2022-10-17T20:28:18.739Z,4.50
2022-10-17T20:31:20.852Z,4.50
2022-10-17T20:34:22.558Z,4.60
2022-10-17T20:37:24.305Z,4.60
2022-10-17T20:40:41.503Z,4.50
2022-10-17T20:43:43.251Z,4.70
2022-10-17T20:47:00.749Z,5.00
2022-10-17T20:50:04.091Z,5.00
2022-10-17T20:53:31.833Z,4.90
2022-10-17T20:56:30.478Z,4.90
2022-10-17T20:59:32.254Z,5.10
2022-10-17T21:02:34.015Z,5.20
2022-10-17T21:05:39.706Z,4.90
2022-10-17T21:08:41.757Z,4.60
2022-10-17T21:11:43.935Z,4.40
2022-10-17T21:14:45.675Z,4.60
2022-10-17T21:17:47.563Z,4.50
2022-10-17T21:20:49.427Z,4.50
2022-10-17T21:23:51.494Z,4.60
2022-10-17T21:26:55.840Z,4.80
2022-10-17T21:29:57.624Z,4.60
2022-10-17T21:32:59.612Z,4.40
2022-10-17T21:36:01.486Z,4.10
2022-10-17T21:39:03.749Z,3.90
2022-10-17T21:42:05.524Z,3.90
2022-10-17T21:45:15.440Z,4.00
2022-10-17T21:48:21.907Z,4.10
2022-10-17T21:51:24.991Z,4.00
2022-10-17T21:54:26.728Z,4.10
2022-10-17T21:57:29.615Z,4.10
2022-10-17T22:00:31.852Z,4.00
2022-10-17T22:03:34.651Z,4.00
2022-10-17T22:06:40.118Z,4.00
2022-10-17T22:09:42.475Z,4.10
2022-10-17T22:12:44.176Z,4.10
2022-10-17T22:15:45.945Z,4.10
2022-10-17T22:18:47.750Z,4.10
2022-10-17T22:21:49.695Z,4.10
2022-10-17T22:24:51.410Z,4.00
2022-10-17T22:27:53.363Z,3.80
2022-10-17T22:30:55.113Z,3.70
2022-10-17T22:33:56.957Z,3.50
2022-10-17T22:36:58.686Z,3.50
2022-10-17T22:40:00.432Z,3.60
2022-10-17T22:43:02.271Z,3.70
2022-10-17T22:46:04.948Z,3.70
2022-10-17T22:49:06.673Z,3.70
2022-10-17T22:52:08.420Z,4.30
2022-10-17T22:55:10.162Z,4.60
2022-10-17T22:58:11.893Z,4.30
2022-10-17T23:01:17.936Z,4.10
2022-10-17T23:04:19.727Z,3.60
2022-10-17T23:07:21.476Z,3.40
2022-10-17T23:10:23.219Z,3.20
2022-10-17T23:13:25.062Z,3.10
2022-10-17T23:16:26.859Z,3.30
2022-10-17T23:19:29.154Z,3.50
2022-10-17T23:22:31.349Z,3.70
2022-10-17T23:25:34.295Z,3.90
2022-10-17T23:28:36.251Z,3.90
2022-10-17T23:31:38.083Z,3.90
2022-10-17T23:34:39.840Z,3.80
2022-10-17T23:37:41.562Z,3.80
2022-10-17T23:40:43.368Z,3.80
2022-10-17T23:43:45.166Z,3.90
2022-10-17T23:46:46.913Z,4.00
2022-10-17T23:49:48.608Z,4.00
2022-10-17T23:52:50.391Z,3.80
2022-10-17T23:55:52.328Z,3.50
2022-10-17T23:58:54.085Z,3.40
